LYBJ weather

Airport Lisicji Jarak
Belgrade, Beograd (city), Serbia

Public forecast

Using degrees Celsius for public forecast. Weather courtesy of forecast.io.

Closest aviation weather report (METAR) to Airport Lisicji Jarak

Closest report is Batajnica Air Base, 8.0 nm (14.8 km) W. Retrieved 2019/12/15 20:30 UTC (10 minutes ago):

LYBT 152030Z 34001KT 4000 1400NW R12/1400U R30/P2000N MIFG BR NSC 02/02 Q1018 BECMG 1500

Closest aviation forecast (TAF) to Airport Lisicji Jarak

Closest forecast is Batajnica Air Base, 8.0 nm (14.8 km) W. Retrieved 2019/12/15 18:00 UTC (3 hours ago):

TAF LYBT 151700Z 1518/1618 11005KT 5000 BR NSC TX12/1612Z TN01/1606Z BECMG 1519/1521 2000 TEMPO 1523/1607 0400 FG BECMG 1607/1609 8000 NSW